Time;durP1;ratioP1;P1;durP2;ratioP2;P2;SDS_P1;SDS_P2;PMS_P1;PMS_P2;Temp;Humidity;BMP_temperature;BMP_pressure;BME280_temperature;BME280_humidity;BME280_pressure;Samples;Min_cycle;Max_cycle;Signal;HPM_P1;HPM_P2
2022/11/23 00:01:23;;;;;;;16.00;9.83;;;1.00;99.90;0.60;99263.00;;;;5029719;27;95231;-64
2022/11/23 00:03:52;;;;;;;15.90;9.57;;;1.00;99.90;0.50;99259.00;;;;5022564;27;83945;-65
2022/11/23 00:06:20;;;;;;;21.73;11.53;;;1.00;99.90;0.50;99264.00;;;;5028601;27;83033;-65
2022/11/23 00:08:46;;;;;;;15.97;10.00;;;1.80;99.90;0.50;99268.00;;;;5029524;27;83731;-66
2022/11/23 00:11:12;;;;;;;15.03;9.10;;;0.70;99.90;0.40;99264.00;;;;5031222;27;99110;-65
2022/11/23 00:13:39;;;;;;;21.13;11.37;;;0.80;99.90;0.40;99276.00;;;;5028053;27;83540;-65
2022/11/23 00:16:07;;;;;;;14.03;9.37;;;0.80;99.90;0.40;99257.00;;;;5034464;27;84464;-65
2022/11/23 00:18:33;;;;;;;17.53;10.70;;;1.00;99.90;0.30;99260.00;;;;5040615;27;83747;-65
2022/11/23 00:20:59;;;;;;;13.43;9.20;;;0.60;99.90;0.30;99268.00;;;;5038232;27;98925;-66
2022/11/23 00:23:25;;;;;;;15.37;9.97;;;0.70;99.90;0.30;99265.00;;;;5015126;27;112723;-65
2022/11/23 00:25:50;;;;;;;19.17;9.90;;;0.60;99.90;0.20;99268.00;;;;5032136;27;114363;-64
2022/11/23 00:28:16;;;;;;;17.33;9.57;;;0.60;99.90;0.20;99269.00;;;;5040617;27;95365;-66
2022/11/23 00:30:48;;;;;;;17.33;11.53;;;0.70;99.90;0.20;99265.00;;;;5039968;27;108314;-65
2022/11/23 00:33:13;;;;;;;20.10;11.47;;;0.60;99.90;0.20;99267.00;;;;5040230;27;83305;-65
2022/11/23 00:35:39;;;;;;;23.53;11.40;;;0.60;99.90;0.10;99267.00;;;;5039016;27;112428;-65
2022/11/23 00:38:04;;;;;;;17.30;11.13;;;0.60;99.90;0.10;99267.00;;;;5033094;27;113340;-64
2022/11/23 00:40:30;;;;;;;21.23;11.03;;;0.60;99.90;0.10;99266.00;;;;5036863;27;109518;-64
2022/11/23 00:42:56;;;;;;;18.87;11.87;;;0.40;99.90;0.10;99274.00;;;;5038608;27;111917;-64
2022/11/23 00:45:21;;;;;;;14.93;11.00;;;0.50;99.90;0.00;99270.00;;;;5037990;27;105954;-65
2022/11/23 00:47:47;;;;;;;14.63;10.73;;;0.40;99.90;0.10;99267.00;;;;5037281;27;114017;-65
2022/11/23 00:50:13;;;;;;;17.17;10.97;;;0.40;99.90;0.00;99271.00;;;;5041303;27;107883;-65
2022/11/23 00:52:38;;;;;;;25.53;14.10;;;0.40;99.90;0.00;99269.00;;;;5028089;27;112829;-65
2022/11/23 00:55:04;;;;;;;22.27;11.57;;;0.30;99.90;0.00;99264.00;;;;5026889;27;115174;-65
2022/11/23 00:57:33;;;;;;;24.13;11.57;;;0.40;99.90;0.00;99264.00;;;;5030990;27;104272;-65
2022/11/23 00:59:59;;;;;;;22.43;13.47;;;0.40;99.90;0.00;99262.00;;;;5031962;27;83388;-64
2022/11/23 01:02:24;;;;;;;22.03;14.40;;;0.40;99.90;0.00;99250.00;;;;5032151;27;89658;-64
2022/11/23 01:04:50;;;;;;;18.77;12.17;;;0.40;99.90;0.00;99263.00;;;;5026639;27;113475;-66
2022/11/23 01:07:15;;;;;;;19.20;10.70;;;0.30;99.90;0.00;99261.00;;;;5025685;27;113251;-64
2022/11/23 01:09:41;;;;;;;18.90;11.57;;;0.30;99.90;0.00;99261.00;;;;5030800;27;109209;-64
2022/11/23 01:12:07;;;;;;;20.47;11.07;;;0.40;99.90;0.00;99268.00;;;;5024733;27;113189;-64
2022/11/23 01:14:32;;;;;;;21.73;12.37;;;0.30;99.90;0.00;99262.00;;;;5020000;27;112921;-64
2022/11/23 01:16:58;;;;;;;17.87;9.63;;;0.30;99.90;0.00;99262.00;;;;5020096;27;112270;-66
2022/11/23 01:19:24;;;;;;;15.70;9.50;;;0.30;99.90;0.00;99263.00;;;;5027443;27;107653;-64
2022/11/23 01:21:50;;;;;;;25.07;11.83;;;0.30;99.90;-0.10;99276.00;;;;5041349;27;83466;-65
2022/11/23 01:24:20;;;;;;;21.23;11.43;;;0.40;99.90;-0.10;99275.00;;;;5039622;27;83426;-66
2022/11/23 01:26:54;;;;;;;12.37;9.07;;;0.30;99.90;-0.10;99279.00;;;;5036674;27;97214;-65
2022/11/23 01:29:21;;;;;;;18.40;10.07;;;0.30;99.90;-0.10;99267.00;;;;5032517;27;82134;-66
2022/11/23 01:31:47;;;;;;;11.17;8.77;;;0.30;99.90;-0.10;99272.00;;;;5029576;27;84247;-66
2022/11/23 01:34:14;;;;;;;16.20;9.60;;;0.20;99.90;-0.20;99257.00;;;;5032283;27;113288;-67
2022/11/23 01:36:40;;;;;;;17.23;11.13;;;0.20;99.90;-0.20;99269.00;;;;5028616;27;83623;-66
2022/11/23 01:39:07;;;;;;;21.03;10.97;;;0.20;99.90;-0.20;99259.00;;;;5029523;27;101791;-65
2022/11/23 01:41:39;;;;;;;14.40;9.87;;;0.20;99.90;-0.30;99277.00;;;;5029823;27;100461;-65
2022/11/23 01:44:29;;;;;;;15.00;9.10;;;0.10;99.90;-0.30;99264.00;;;;5029644;27;82759;-66
2022/11/23 01:47:02;;;;;;;12.73;8.83;;;0.00;99.90;-0.40;99260.00;;;;5026830;27;82877;-66
2022/11/23 01:49:34;;;;;;;13.47;8.27;;;0.00;99.90;-0.40;99269.00;;;;5032816;27;82893;-65
2022/11/23 01:52:09;;;;;;;13.67;9.20;;;0.10;99.90;-0.40;99278.00;;;;5020966;27;82985;-65
2022/11/23 01:54:44;;;;;;;14.77;8.57;;;0.10;99.90;-0.40;99281.00;;;;5030519;27;96506;-66
2022/11/23 01:57:17;;;;;;;16.87;8.27;;;-0.10;99.90;-0.50;99286.00;;;;5019339;27;83183;-65
2022/11/23 01:59:44;;;;;;;15.77;9.03;;;-0.10;99.90;-0.50;99285.00;;;;5033624;27;82868;-65
2022/11/23 02:02:09;;;;;;;19.13;10.10;;;-0.10;99.90;-0.50;99285.00;;;;5025758;27;105659;-66
2022/11/23 02:04:39;;;;;;;15.33;9.40;;;-0.10;99.90;-0.60;99281.00;;;;5028083;27;112563;-64
2022/11/23 02:07:05;;;;;;;16.87;8.73;;;-0.20;99.90;-0.60;99281.00;;;;5019655;27;89358;-64
2022/11/23 02:09:33;;;;;;;12.00;8.63;;;-0.20;99.90;-0.60;99281.00;;;;5036973;27;108689;-65
2022/11/23 02:12:00;;;;;;;14.90;9.07;;;-0.20;99.90;-0.70;99273.00;;;;5019240;27;112497;-64
2022/11/23 02:14:26;;;;;;;18.63;9.70;;;-0.40;99.90;-0.70;99274.00;;;;5039379;27;83803;-64
2022/11/23 02:16:51;;;;;;;18.93;10.17;;;-0.30;99.90;-0.70;99271.00;;;;5017085;27;110939;-65
2022/11/23 02:19:54;;;;;;;12.70;8.33;;;-0.40;99.90;-0.80;99273.00;;;;5037482;27;107548;-64
2022/11/23 02:22:39;;;;;;;16.27;9.27;;;-0.40;99.90;-0.80;99272.00;;;;5033221;27;102615;-64
2022/11/23 02:25:15;;;;;;;12.13;9.03;;;-0.30;99.90;-0.80;99282.00;;;;5018311;27;105748;-64
2022/11/23 02:27:41;;;;;;;19.13;9.63;;;-1.40;99.90;-0.80;99270.00;;;;5036029;27;83638;-64
2022/11/23 02:30:08;;;;;;;18.03;9.97;;;-0.50;99.90;-0.80;99271.00;;;;5037885;27;108572;-63
2022/11/23 02:32:34;;;;;;;15.70;9.47;;;-0.50;99.90;-0.80;99273.00;;;;5034834;27;103324;-63
2022/11/23 02:35:01;;;;;;;15.57;9.63;;;-0.50;99.90;-0.80;99272.00;;;;5018939;27;111988;-63
2022/11/23 02:37:26;;;;;;;21.07;11.87;;;-0.40;99.90;-0.80;99281.00;;;;5037964;27;82784;-66
2022/11/23 02:39:53;;;;;;;17.03;9.80;;;-0.40;99.90;-0.80;99284.00;;;;5036195;27;108984;-65
2022/11/23 02:42:19;;;;;;;14.33;9.03;;;-0.50;99.90;-0.80;99280.00;;;;5018776;27;111639;-63
2022/11/23 02:45:27;;;;;;;14.03;9.40;;;-0.50;99.90;-0.90;99286.00;;;;5029110;27;83159;-64
2022/11/23 02:47:52;;;;;;;16.10;9.27;;;-0.50;99.90;-0.90;99284.00;;;;5018734;27;83015;-65
2022/11/23 02:50:18;;;;;;;12.97;10.03;;;-0.40;99.90;-0.90;99283.00;;;;5036830;27;108685;-65
2022/11/23 02:52:44;;;;;;;11.50;7.93;;;-0.50;99.90;-0.90;99283.00;;;;5025183;27;113243;-64
2022/11/23 02:55:09;;;;;;;17.20;9.93;;;-0.50;99.90;-0.90;99307.00;;;;5024863;27;92719;-64
2022/11/23 02:57:35;;;;;;;16.03;8.50;;;-0.40;99.90;-0.90;99304.00;;;;5037207;27;82736;-64
2022/11/23 03:00:01;;;;;;;17.10;9.13;;;-0.50;99.90;-0.90;99289.00;;;;5030438;27;91521;-64
2022/11/23 03:02:27;;;;;;;15.13;9.57;;;-0.60;99.90;-0.90;99305.00;;;;5026541;27;112084;-64
2022/11/23 03:04:52;;;;;;;13.23;8.27;;;-0.50;99.90;-0.90;99297.00;;;;5036826;27;86718;-64
2022/11/23 03:07:18;;;;;;;18.10;9.70;;;-0.40;99.90;-0.90;99304.00;;;;5037969;27;82955;-64
2022/11/23 03:09:44;;;;;;;14.53;9.53;;;-0.60;99.90;-0.90;99299.00;;;;5037997;27;107109;-65
2022/11/23 03:12:09;;;;;;;16.77;9.70;;;-0.40;99.90;-0.90;99311.00;;;;5029630;27;112110;-65
2022/11/23 03:14:37;;;;;;;23.40;10.50;;;-0.50;99.90;-0.90;99314.00;;;;5020227;27;113027;-65
2022/11/23 03:17:04;;;;;;;16.00;10.30;;;-0.50;99.90;-0.80;99321.00;;;;5036834;27;83754;-65
2022/11/23 03:19:29;;;;;;;11.20;7.60;;;-0.40;99.90;-0.80;99320.00;;;;5028592;27;83535;-64
2022/11/23 03:21:55;;;;;;;15.67;9.27;;;-0.40;99.90;-0.80;99311.00;;;;5038398;27;83122;-65
2022/11/23 03:24:20;;;;;;;18.37;8.70;;;-0.40;99.90;-0.80;99313.00;;;;5028665;27;112698;-65
2022/11/23 03:26:47;;;;;;;12.03;8.30;;;-0.40;99.90;-0.80;99317.00;;;;5036062;27;89184;-64
2022/11/23 03:29:13;;;;;;;15.87;9.23;;;-0.50;99.90;-0.80;99317.00;;;;5024732;27;82789;-64
2022/11/23 03:31:39;;;;;;;18.93;11.23;;;-0.40;99.90;-0.80;99322.00;;;;5024414;27;104975;-64
2022/11/23 03:34:04;;;;;;;14.47;8.77;;;-0.60;99.90;-0.90;99315.00;;;;5036288;27;83508;-65
2022/11/23 03:36:30;;;;;;;15.20;8.83;;;-0.40;99.90;-0.80;99320.00;;;;5031602;27;112526;-65
2022/11/23 03:38:55;;;;;;;13.67;8.93;;;-0.50;99.90;-0.80;99314.00;;;;5029406;27;107452;-66
2022/11/23 03:41:21;;;;;;;15.73;9.23;;;-0.50;99.90;-0.80;99319.00;;;;5022295;27;113051;-64
2022/11/23 03:43:47;;;;;;;13.10;8.97;;;-0.40;99.90;-0.80;99327.00;;;;5037091;27;114162;-64
2022/11/23 03:46:13;;;;;;;12.40;7.83;;;-0.50;99.90;-0.80;99323.00;;;;5035990;27;110457;-65
2022/11/23 03:48:38;;;;;;;14.00;8.70;;;-0.40;99.90;-0.80;99327.00;;;;5029456;27;108926;-66
2022/11/23 03:51:04;;;;;;;14.37;7.33;;;-0.50;99.90;-0.80;99316.00;;;;5025895;27;111690;-64
2022/11/23 03:53:30;;;;;;;21.47;9.10;;;-0.40;99.90;-0.80;99317.00;;;;5026715;27;102180;-65
2022/11/23 03:55:57;;;;;;;19.00;9.80;;;-0.50;99.90;-0.80;99316.00;;;;5033251;27;112966;-64
2022/11/23 03:58:22;;;;;;;15.40;9.80;;;-0.40;99.90;-0.70;99329.00;;;;5037616;27;82003;-64
2022/11/23 04:00:48;;;;;;;12.70;8.23;;;-0.50;99.90;-0.70;99321.00;;;;5036123;27;112451;-64
2022/11/23 04:03:14;;;;;;;12.20;8.70;;;-0.40;99.90;-0.80;99326.00;;;;5034237;27;83017;-64
2022/11/23 04:05:39;;;;;;;12.13;7.27;;;-0.40;99.90;-0.70;99334.00;;;;5033123;27;110251;-65
2022/11/23 04:08:05;;;;;;;12.27;8.37;;;-0.30;99.90;-0.70;99333.00;;;;5035218;27;107954;-65
2022/11/23 04:10:31;;;;;;;16.27;7.60;;;-0.30;99.90;-0.70;99321.00;;;;5031144;27;101635;-65
2022/11/23 04:12:56;;;;;;;15.03;8.27;;;-0.40;99.90;-0.70;99321.00;;;;5036008;27;111701;-65
2022/11/23 04:15:22;;;;;;;9.73;7.60;;;-0.30;99.90;-0.70;99335.00;;;;5029109;27;108844;-64
2022/11/23 04:17:48;;;;;;;17.97;9.97;;;-0.40;99.90;-0.70;99325.00;;;;5036355;27;108825;-64
2022/11/23 04:20:14;;;;;;;13.33;8.73;;;-0.30;99.90;-0.60;99331.00;;;;5034064;27;112012;-65
2022/11/23 04:22:40;;;;;;;12.40;8.17;;;-0.30;99.90;-0.70;99324.00;;;;5035584;27;113398;-64
2022/11/23 04:25:06;;;;;;;13.00;8.63;;;-0.20;99.90;-0.70;99319.00;;;;5036355;27;98187;-64
2022/11/23 04:27:32;;;;;;;13.27;8.30;;;-0.30;99.90;-0.60;99332.00;;;;5034132;27;82544;-65
2022/11/23 04:29:57;;;;;;;11.53;7.57;;;-0.30;99.90;-0.70;99337.00;;;;5036771;27;113409;-65
2022/11/23 04:32:23;;;;;;;13.27;8.80;;;-0.30;99.90;-0.60;99337.00;;;;5037624;27;83247;-65
2022/11/23 04:34:48;;;;;;;14.60;9.23;;;-0.30;99.90;-0.60;99334.00;;;;5035102;27;105249;-65
2022/11/23 04:37:14;;;;;;;12.87;9.10;;;-0.30;99.90;-0.60;99343.00;;;;5036140;27;109173;-65
2022/11/23 04:39:40;;;;;;;14.80;9.27;;;0.00;99.90;-0.60;99330.00;;;;5037657;27;84436;-65
2022/11/23 04:42:05;;;;;;;17.37;8.63;;;-0.20;99.90;-0.60;99337.00;;;;5028763;27;111459;-65
2022/11/23 04:44:31;;;;;;;18.57;8.43;;;-0.20;99.90;-0.70;99336.00;;;;5035851;27;111332;-65
2022/11/23 04:46:57;;;;;;;16.20;9.57;;;-0.30;99.90;-0.60;99335.00;;;;5035691;27;109151;-65
2022/11/23 04:49:22;;;;;;;11.47;6.73;;;-0.30;99.90;-0.60;99343.00;;;;5036727;27;112772;-65
2022/11/23 04:51:48;;;;;;;14.60;8.37;;;-0.30;99.90;-0.60;99343.00;;;;5033959;27;112480;-65
2022/11/23 04:54:14;;;;;;;14.73;9.40;;;-0.30;99.90;-0.60;99346.00;;;;5035761;27;109445;-65
2022/11/23 04:56:39;;;;;;;11.30;8.43;;;-0.30;99.90;-0.60;99351.00;;;;5036445;27;84500;-65
2022/11/23 04:59:06;;;;;;;15.20;9.20;;;-0.40;99.90;-0.60;99340.00;;;;5035570;27;111221;-65
2022/11/23 05:01:31;;;;;;;11.70;6.97;;;-0.30;99.90;-0.60;99334.00;;;;5027929;27;83894;-65
2022/11/23 05:03:57;;;;;;;11.63;8.27;;;-0.30;99.90;-0.60;99335.00;;;;5039062;27;100257;-64
2022/11/23 05:06:23;;;;;;;13.73;8.47;;;-0.20;99.90;-0.60;99327.00;;;;5039367;27;108840;-66
2022/11/23 05:08:48;;;;;;;12.03;7.23;;;-0.30;99.90;-0.60;99332.00;;;;5039297;27;112615;-66
2022/11/23 05:11:14;;;;;;;15.27;8.50;;;-0.30;99.90;-0.60;99326.00;;;;5039414;27;103225;-64
2022/11/23 05:13:40;;;;;;;15.63;8.20;;;-0.20;99.90;-0.60;99326.00;;;;5038732;27;110630;-64
2022/11/23 05:16:06;;;;;;;11.87;7.63;;;-0.30;99.90;-0.60;99330.00;;;;5029038;27;103458;-63
2022/11/23 05:18:32;;;;;;;16.33;8.87;;;-0.30;99.90;-0.60;99326.00;;;;5034714;27;114526;-64
2022/11/23 05:20:58;;;;;;;14.63;9.23;;;-0.20;99.90;-0.60;99331.00;;;;5038869;27;114572;-64
2022/11/23 05:23:23;;;;;;;15.83;9.23;;;-0.20;99.90;-0.60;99325.00;;;;5028625;27;110261;-64
2022/11/23 05:25:49;;;;;;;13.43;8.07;;;-0.30;99.90;-0.70;99322.00;;;;5032008;27;108351;-65
2022/11/23 05:28:19;;;;;;;15.93;8.60;;;-0.30;99.90;-0.70;99326.00;;;;5038507;27;111922;-64
2022/11/23 05:30:44;;;;;;;11.37;8.53;;;-0.30;99.90;-0.70;99317.00;;;;5039087;27;103876;-64
2022/11/23 05:33:10;;;;;;;17.53;8.23;;;-0.50;99.90;-0.80;99324.00;;;;5038088;27;111716;-64
2022/11/23 05:35:36;;;;;;;13.43;7.90;;;-0.40;99.90;-0.80;99328.00;;;;5038553;27;108791;-64
2022/11/23 05:38:02;;;;;;;10.33;6.90;;;-0.50;99.90;-0.80;99332.00;;;;5037540;27;93380;-65
2022/11/23 05:40:28;;;;;;;11.40;7.33;;;-0.40;99.90;-0.90;99336.00;;;;5036385;27;84754;-65
2022/11/23 05:42:55;;;;;;;10.33;7.43;;;-0.50;99.90;-0.90;99329.00;;;;5035911;27;109823;-65
2022/11/23 05:45:22;;;;;;;11.60;7.90;;;-0.60;99.90;-0.90;99328.00;;;;5038575;27;82627;-64
2022/11/23 05:47:52;;;;;;;15.20;8.27;;;-0.50;99.90;-0.90;99325.00;;;;5027153;27;83641;-64
2022/11/23 05:50:19;;;;;;;11.37;7.90;;;-0.40;99.90;-0.90;99326.00;;;;5037286;27;83412;-66
2022/11/23 05:52:45;;;;;;;14.20;8.13;;;-0.60;99.90;-0.90;99339.00;;;;5025175;27;82700;-64
2022/11/23 05:55:11;;;;;;;11.80;8.13;;;-0.60;99.90;-0.90;99331.00;;;;5033021;27;108846;-64
2022/11/23 05:57:36;;;;;;;13.67;8.60;;;-0.50;99.90;-0.90;99336.00;;;;5039267;27;83098;-64
2022/11/23 06:00:04;;;;;;;14.57;8.50;;;-0.50;99.90;-0.90;99331.00;;;;5033348;27;112866;-64
2022/11/23 06:02:29;;;;;;;14.33;8.47;;;-0.60;99.90;-0.90;99341.00;;;;5027102;27;101891;-64
2022/11/23 06:04:55;;;;;;;16.03;8.57;;;-0.60;99.90;-0.90;99334.00;;;;5029827;27;107519;-64
2022/11/23 06:07:21;;;;;;;14.97;8.10;;;-0.50;99.90;-1.00;99352.00;;;;5028325;27;112900;-64
2022/11/23 06:09:46;;;;;;;14.07;8.13;;;-0.60;99.90;-0.90;99335.00;;;;5031836;27;113429;-65
2022/11/23 06:12:12;;;;;;;20.27;11.37;;;-0.60;99.90;-0.90;99342.00;;;;5023356;27;110218;-64
2022/11/23 06:14:38;;;;;;;16.20;10.27;;;-0.50;99.90;-0.90;99347.00;;;;5035856;27;108713;-64
2022/11/23 06:17:03;;;;;;;14.90;9.10;;;-0.60;99.90;-0.90;99335.00;;;;5033693;27;112865;-64
2022/11/23 06:19:29;;;;;;;16.53;9.60;;;-0.60;99.90;-0.90;99343.00;;;;5036120;27;111748;-64
2022/11/23 06:21:56;;;;;;;14.83;9.90;;;-0.60;99.90;-0.80;99348.00;;;;5036074;27;110652;-65
2022/11/23 06:24:23;;;;;;;14.07;9.37;;;-0.50;99.90;-0.80;99341.00;;;;5036691;27;92204;-65
2022/11/23 06:26:51;;;;;;;20.70;10.17;;;-0.40;99.90;-0.70;99350.00;;;;5038265;27;82809;-65
2022/11/23 06:29:18;;;;;;;18.20;9.93;;;-0.40;99.90;-0.70;99351.00;;;;5034903;27;84269;-65
2022/11/23 06:31:44;;;;;;;19.60;9.63;;;-0.40;99.90;-0.70;99351.00;;;;5035132;27;84574;-64
2022/11/23 06:34:10;;;;;;;17.77;9.87;;;-0.30;99.90;-0.60;99368.00;;;;5037014;27;82859;-64
2022/11/23 06:36:35;;;;;;;14.80;9.53;;;-0.30;99.90;-0.60;99358.00;;;;5036512;27;112866;-64
2022/11/23 06:39:01;;;;;;;15.20;9.93;;;-0.30;99.90;-0.50;99359.00;;;;5027953;27;113096;-64
2022/11/23 06:41:27;;;;;;;16.27;9.10;;;-0.20;99.90;-0.40;99356.00;;;;5035951;27;109863;-64
2022/11/23 06:43:52;;;;;;;11.60;8.37;;;-0.20;99.90;-0.40;99372.00;;;;5035008;27;108148;-64
2022/11/23 06:46:18;;;;;;;15.17;8.80;;;-0.20;99.90;-0.40;99366.00;;;;5029807;27;112563;-64
2022/11/23 06:48:45;;;;;;;11.07;6.03;;;-0.10;99.90;-0.30;99367.00;;;;5026520;27;113627;-64
2022/11/23 06:51:12;;;;;;;10.87;7.40;;;-0.10;99.90;-0.30;99367.00;;;;5025580;27;101280;-65
2022/11/23 06:53:37;;;;;;;13.37;9.90;;;0.10;99.90;-0.20;99365.00;;;;5036456;27;101024;-64
2022/11/23 06:56:04;;;;;;;13.30;8.43;;;0.00;99.90;-0.20;99367.00;;;;5033625;27;109499;-64
2022/11/23 06:58:30;;;;;;;14.47;9.83;;;0.20;99.90;-0.10;99373.00;;;;5032802;27;101122;-64
2022/11/23 07:01:05;;;;;;;19.10;9.00;;;0.20;99.90;-0.10;99366.00;;;;5032314;27;82926;-64
2022/11/23 07:03:31;;;;;;;14.77;8.60;;;0.20;99.90;0.00;99373.00;;;;5036314;27;103225;-65
2022/11/23 07:05:57;;;;;;;12.63;8.03;;;0.30;99.90;0.00;99366.00;;;;5036738;27;84803;-64
2022/11/23 07:08:22;;;;;;;7.57;6.37;;;0.40;99.90;0.00;99369.00;;;;5035575;27;83836;-65
2022/11/23 07:10:48;;;;;;;10.23;8.27;;;0.40;99.90;0.10;99365.00;;;;5032266;27;83366;-65
2022/11/23 07:13:15;;;;;;;12.37;8.23;;;0.40;99.90;0.10;99371.00;;;;5036378;27;81941;-64
2022/11/23 07:15:41;;;;;;;13.50;9.53;;;0.50;99.90;0.10;99379.00;;;;5037761;27;99096;-64
2022/11/23 07:18:09;;;;;;;15.93;10.83;;;0.40;99.90;0.10;99377.00;;;;5031108;27;83386;-64
2022/11/23 07:20:34;;;;;;;15.67;8.17;;;0.50;99.90;0.10;99376.00;;;;5014186;27;102410;-64
2022/11/23 07:23:03;;;;;;;11.57;8.40;;;0.50;99.90;0.20;99383.00;;;;5034554;27;82836;-64
2022/11/23 07:25:30;;;;;;;9.63;7.97;;;0.40;99.90;0.20;99382.00;;;;5034901;27;83736;-64
2022/11/23 07:27:57;;;;;;;15.07;8.67;;;0.40;99.90;0.20;99385.00;;;;5035603;27;103490;-65
2022/11/23 07:30:25;;;;;;;18.23;10.40;;;0.50;99.90;0.30;99400.00;;;;5035862;27;101584;-64
2022/11/23 07:32:51;;;;;;;15.83;9.03;;;0.50;99.90;0.30;99396.00;;;;5032979;27;100457;-64
2022/11/23 07:35:19;;;;;;;14.50;11.13;;;0.60;99.90;0.40;99394.00;;;;5034089;27;82847;-65
2022/11/23 07:37:45;;;;;;;12.93;9.87;;;0.60;99.90;0.40;99391.00;;;;5025599;27;101080;-65
2022/11/23 07:40:12;;;;;;;18.27;11.23;;;0.70;99.90;0.40;99379.00;;;;5015759;27;83580;-65
2022/11/23 07:42:38;;;;;;;15.13;10.30;;;0.70;99.90;0.40;99381.00;;;;5034845;27;83331;-65
2022/11/23 07:45:05;;;;;;;15.07;10.83;;;0.70;99.90;0.40;99385.00;;;;5033879;27;104483;-64
2022/11/23 07:47:31;;;;;;;24.93;15.03;;;0.80;99.90;0.50;99382.00;;;;5026838;27;105764;-64
2022/11/23 07:49:57;;;;;;;18.70;11.87;;;0.70;99.90;0.50;99389.00;;;;5026784;27;105541;-65
2022/11/23 07:52:23;;;;;;;17.60;9.93;;;0.80;99.90;0.50;99377.00;;;;5031412;27;110649;-64
2022/11/23 07:54:48;;;;;;;19.83;11.30;;;0.80;99.90;0.50;99382.00;;;;5032722;27;100986;-64
2022/11/23 07:57:14;;;;;;;15.90;10.30;;;0.80;99.90;0.40;99374.00;;;;5031012;27;114514;-64
2022/11/23 07:59:40;;;;;;;21.80;11.43;;;0.70;99.90;0.50;99385.00;;;;5036566;27;84344;-65
2022/11/23 08:02:09;;;;;;;14.63;9.27;;;0.80;99.90;0.50;99381.00;;;;5032376;27;108992;-64
2022/11/23 08:04:34;;;;;;;20.00;11.50;;;0.80;99.90;0.50;99387.00;;;;5017139;27;102308;-64
2022/11/23 08:07:01;;;;;;;21.00;10.87;;;0.80;99.90;0.50;99389.00;;;;5032545;27;112928;-64
2022/11/23 08:09:27;;;;;;;15.23;10.03;;;0.80;99.90;0.50;99393.00;;;;5031472;27;83872;-65
2022/11/23 08:11:52;;;;;;;20.57;10.23;;;0.80;99.90;0.50;99394.00;;;;5027577;27;108202;-64
2022/11/23 08:14:18;;;;;;;16.17;11.23;;;0.90;99.90;0.50;99396.00;;;;5021110;27;112276;-66
2022/11/23 08:16:49;;;;;;;16.27;11.90;;;0.90;99.90;0.50;99394.00;;;;5016464;27;83534;-65
2022/11/23 08:19:14;;;;;;;18.27;11.50;;;0.80;99.90;0.40;99399.00;;;;5013145;27;83531;-64
2022/11/23 08:21:40;;;;;;;15.73;10.17;;;0.80;99.90;0.50;99399.00;;;;5017774;27;83546;-65
2022/11/23 08:24:06;;;;;;;19.40;10.87;;;0.80;99.90;0.50;99399.00;;;;5018454;27;113260;-65
2022/11/23 08:26:32;;;;;;;17.37;10.73;;;0.90;99.90;0.50;99405.00;;;;5027975;27;105136;-64
2022/11/23 08:28:57;;;;;;;13.73;10.33;;;0.80;99.90;0.60;99396.00;;;;5027338;27;112603;-64
2022/11/23 08:31:23;;;;;;;15.60;9.87;;;1.00;99.90;0.80;99394.00;;;;5033028;27;109670;-64
2022/11/23 08:33:49;;;;;;;17.87;9.83;;;1.00;99.90;1.20;99391.00;;;;5034953;27;85005;-64
2022/11/23 08:36:15;;;;;;;17.87;11.93;;;1.30;99.90;1.50;99408.00;;;;5032563;27;114005;-63
2022/11/23 08:38:40;;;;;;;16.60;11.63;;;1.60;99.90;1.70;99403.00;;;;5030895;27;83584;-63
2022/11/23 08:41:06;;;;;;;18.23;12.00;;;1.90;99.90;1.70;99405.00;;;;5033380;27;83418;-63
2022/11/23 08:43:33;;;;;;;17.17;11.87;;;2.00;99.90;1.80;99408.00;;;;5034124;27;104956;-63
2022/11/23 08:45:59;;;;;;;16.40;10.97;;;2.00;99.90;1.90;99405.00;;;;5039046;27;83866;-64
2022/11/23 08:48:26;;;;;;;15.80;11.63;;;2.10;99.90;1.90;99395.00;;;;5030526;27;96278;-64
2022/11/23 08:50:51;;;;;;;14.53;10.40;;;2.20;99.90;2.10;99410.00;;;;5034538;27;83507;-65
2022/11/23 08:53:17;;;;;;;13.73;9.37;;;2.30;99.90;2.20;99419.00;;;;5033250;27;102293;-64
2022/11/23 08:55:43;;;;;;;14.57;9.63;;;2.50;99.90;2.30;99413.00;;;;5038037;27;89348;-63
2022/11/23 08:58:10;;;;;;;16.33;11.10;;;2.60;99.90;2.40;99415.00;;;;5029192;27;93973;-63
2022/11/23 09:00:35;;;;;;;13.90;10.23;;;2.70;99.90;2.50;99411.00;;;;5029473;27;102133;-64
2022/11/23 09:03:02;;;;;;;16.67;11.73;;;2.80;99.90;2.70;99408.00;;;;5037560;27;102468;-64
2022/11/23 09:05:28;;;;;;;17.00;12.00;;;2.90;99.90;3.10;99400.00;;;;5037076;27;84572;-64
2022/11/23 09:08:03;;;;;;;18.50;11.47;;;3.20;99.90;3.60;99420.00;;;;5037089;27;84479;-64
2022/11/23 09:10:29;;;;;;;19.03;11.13;;;3.60;99.90;4.20;99421.00;;;;5029283;27;83838;-64
2022/11/23 09:12:55;;;;;;;15.17;11.60;;;4.10;99.90;4.70;99425.00;;;;5036459;27;113688;-64
2022/11/23 09:15:20;;;;;;;16.77;8.20;;;4.60;99.90;5.10;99437.00;;;;5036169;27;94588;-64
2022/11/23 09:17:46;;;;;;;13.83;8.53;;;5.00;99.90;5.50;99441.00;;;;5036529;27;88125;-64
2022/11/23 09:20:12;;;;;;;12.93;7.60;;;6.20;99.90;5.90;99427.00;;;;5035541;27;108561;-65
2022/11/23 09:22:38;;;;;;;14.17;8.30;;;5.70;99.90;6.20;99428.00;;;;5034275;27;85320;-64
2022/11/23 09:25:05;;;;;;;30.37;16.33;;;6.10;99.90;6.50;99431.00;;;;5030458;27;83170;-64
2022/11/23 09:27:31;;;;;;;27.27;13.57;;;6.50;99.90;6.70;99433.00;;;;5029004;27;83844;-65
2022/11/23 09:29:57;;;;;;;34.27;22.10;;;6.80;99.90;6.90;99433.00;;;;5035655;27;98371;-64
2022/11/23 09:32:23;;;;;;;20.90;14.40;;;6.90;99.90;7.00;99432.00;;;;5033631;27;105920;-64
2022/11/23 09:34:48;;;;;;;16.43;11.17;;;7.60;99.90;7.00;99435.00;;;;5028121;27;108050;-64
2022/11/23 09:37:14;;;;;;;16.73;10.43;;;7.00;99.90;7.00;99435.00;;;;5033690;27;113208;-63
2022/11/23 09:39:40;;;;;;;17.07;9.47;;;7.10;99.90;6.80;99426.00;;;;5037227;27;83357;-64
2022/11/23 09:42:27;;;;;;;11.37;7.67;;;7.00;99.90;6.60;99429.00;;;;5035430;27;83330;-65
2022/11/23 09:45:23;;;;;;;11.93;8.60;;;6.80;99.90;6.30;99418.00;;;;5031773;27;83672;-64
2022/11/23 09:48:33;;;;;;;13.30;8.57;;;6.50;99.90;6.10;99422.00;;;;5014166;27;84162;-65
2022/11/23 09:51:18;;;;;;;11.20;7.83;;;6.40;99.90;5.90;99414.00;;;;5036162;27;82909;-63
2022/11/23 09:53:59;;;;;;;12.40;7.63;;;6.10;99.90;5.70;99426.00;;;;5034688;27;83976;-64
2022/11/23 09:56:37;;;;;;;12.70;7.53;;;6.00;99.90;5.60;99423.00;;;;5012325;27;85131;-64
2022/11/23 09:59:24;;;;;;;12.50;8.47;;;5.80;99.90;5.50;99417.00;;;;5014546;27;82649;-65
2022/11/23 10:01:49;;;;;;;15.20;7.67;;;5.80;99.90;5.40;99419.00;;;;5030661;27;102662;-64
2022/11/23 10:04:18;;;;;;;10.80;6.73;;;5.60;99.90;5.30;99417.00;;;;5038913;27;111500;-65
2022/11/23 10:06:51;;;;;;;14.57;7.97;;;5.40;99.90;5.30;99428.00;;;;5037363;27;82554;-64
2022/11/23 10:09:56;;;;;;;11.87;8.20;;;5.40;99.90;5.20;99418.00;;;;5015871;27;103525;-64
2022/11/23 10:12:35;;;;;;;10.33;7.53;;;5.50;99.90;5.30;99422.00;;;;5004339;27;98520;-64
2022/11/23 10:15:26;;;;;;;9.93;7.17;;;5.40;99.90;5.20;99413.00;;;;5036925;27;84013;-64
2022/11/23 10:18:18;;;;;;;15.00;7.63;;;5.40;99.90;5.20;99419.00;;;;5017316;27;83621;-64
2022/11/23 10:21:10;;;;;;;8.77;7.33;;;5.40;99.90;5.20;99413.00;;;;5016374;27;82962;-65
2022/11/23 10:23:55;;;;;;;10.33;6.23;;;5.40;99.90;5.30;99419.00;;;;5037078;27;94263;-64
2022/11/23 10:26:31;;;;;;;24.90;14.73;;;5.30;99.90;5.30;99417.00;;;;5036268;27;83109;-65
2022/11/23 10:29:09;;;;;;;52.63;29.13;;;5.30;99.90;5.30;99410.00;;;;5034936;27;100637;-66
2022/11/23 10:31:36;;;;;;;47.77;30.77;;;5.50;99.90;5.40;99416.00;;;;4997751;27;84184;-65
2022/11/23 10:34:10;;;;;;;136.07;92.87;;;5.40;99.90;5.40;99409.00;;;;5028492;27;108321;-65
2022/11/23 10:36:37;;;;;;;39.50;30.47;;;5.40;99.90;5.40;99412.00;;;;5037022;27;83718;-65
2022/11/23 10:39:20;;;;;;;12.67;9.37;;;6.30;99.90;5.50;99398.00;;;;5023584;27;84852;-65
2022/11/23 10:41:46;;;;;;;16.00;9.80;;;5.60;99.90;5.60;99396.00;;;;5028262;27;83540;-66
2022/11/23 10:44:30;;;;;;;12.33;10.13;;;5.70;99.90;5.80;99395.00;;;;5030005;27;109037;-65
2022/11/23 10:46:57;;;;;;;15.97;11.03;;;5.80;99.90;6.00;99399.00;;;;5034875;27;84553;-65
2022/11/23 10:49:28;;;;;;;19.60;10.57;;;6.00;99.90;6.20;99390.00;;;;5028089;27;84716;-66
2022/11/23 10:52:02;;;;;;;16.37;9.83;;;6.40;99.90;6.60;99398.00;;;;5029418;27;83610;-66